sensor_id;sensor_type;location;lat;lon;timestamp;P1;durP1;ratioP1;P2;durP2;ratioP2
51602;SDS011;37954;51.980;5.850;2023-02-28T00:02:34;3.00;;;2.17;;
51602;SDS011;37954;51.980;5.850;2023-02-28T00:06:46;3.43;;;2.20;;
51602;SDS011;37954;51.980;5.850;2023-02-28T00:11:03;3.20;;;2.27;;
51602;SDS011;37954;51.980;5.850;2023-02-28T00:15:16;4.50;;;2.30;;
51602;SDS011;37954;51.980;5.850;2023-02-28T00:19:28;2.90;;;2.17;;
51602;SDS011;37954;51.980;5.850;2023-02-28T00:23:40;2.20;;;1.70;;
51602;SDS011;37954;51.980;5.850;2023-02-28T00:27:51;4.37;;;2.07;;
51602;SDS011;37954;51.980;5.850;2023-02-28T00:32:04;4.03;;;2.33;;
51602;SDS011;37954;51.980;5.850;2023-02-28T00:36:17;4.23;;;2.33;;
51602;SDS011;37954;51.980;5.850;2023-02-28T00:40:28;2.67;;;2.00;;
51602;SDS011;37954;51.980;5.850;2023-02-28T00:44:40;3.90;;;2.10;;
51602;SDS011;37954;51.980;5.850;2023-02-28T00:48:52;6.03;;;2.33;;
51602;SDS011;37954;51.980;5.850;2023-02-28T00:53:04;3.77;;;2.13;;
51602;SDS011;37954;51.980;5.850;2023-02-28T00:57:15;2.37;;;1.87;;
51602;SDS011;37954;51.980;5.850;2023-02-28T01:01:27;4.73;;;2.27;;
51602;SDS011;37954;51.980;5.850;2023-02-28T01:05:39;3.27;;;2.03;;
51602;SDS011;37954;51.980;5.850;2023-02-28T01:09:52;4.30;;;2.30;;
51602;SDS011;37954;51.980;5.850;2023-02-28T01:14:03;3.37;;;2.13;;
51602;SDS011;37954;51.980;5.850;2023-02-28T01:18:15;4.37;;;2.37;;
51602;SDS011;37954;51.980;5.850;2023-02-28T01:22:26;4.33;;;2.53;;
51602;SDS011;37954;51.980;5.850;2023-02-28T01:26:38;3.37;;;2.40;;
51602;SDS011;37954;51.980;5.850;2023-02-28T01:30:51;3.80;;;2.30;;
51602;SDS011;37954;51.980;5.850;2023-02-28T01:35:03;4.77;;;2.30;;
51602;SDS011;37954;51.980;5.850;2023-02-28T01:39:15;5.43;;;2.63;;
51602;SDS011;37954;51.980;5.850;2023-02-28T01:43:28;4.93;;;2.50;;
51602;SDS011;37954;51.980;5.850;2023-02-28T01:48:04;3.67;;;2.13;;
51602;SDS011;37954;51.980;5.850;2023-02-28T01:52:19;2.87;;;2.30;;
51602;SDS011;37954;51.980;5.850;2023-02-28T01:56:32;5.03;;;2.40;;
51602;SDS011;37954;51.980;5.850;2023-02-28T02:00:48;4.50;;;2.60;;
51602;SDS011;37954;51.980;5.850;2023-02-28T02:05:03;3.03;;;2.30;;
51602;SDS011;37954;51.980;5.850;2023-02-28T02:09:17;3.30;;;2.13;;
51602;SDS011;37954;51.980;5.850;2023-02-28T02:13:32;3.90;;;2.20;;
51602;SDS011;37954;51.980;5.850;2023-02-28T02:18:13;5.60;;;2.53;;
51602;SDS011;37954;51.980;5.850;2023-02-28T02:22:43;3.70;;;2.50;;
51602;SDS011;37954;51.980;5.850;2023-02-28T02:31:37;4.90;;;2.30;;
51602;SDS011;37954;51.980;5.850;2023-02-28T02:40:18;6.60;;;2.30;;
51602;SDS011;37954;51.980;5.850;2023-02-28T02:49:03;5.17;;;2.30;;
51602;SDS011;37954;51.980;5.850;2023-02-28T02:53:21;4.60;;;2.30;;
51602;SDS011;37954;51.980;5.850;2023-02-28T03:02:02;3.40;;;2.43;;
51602;SDS011;37954;51.980;5.850;2023-02-28T03:06:17;3.40;;;2.00;;
51602;SDS011;37954;51.980;5.850;2023-02-28T03:15:16;3.23;;;2.27;;
51602;SDS011;37954;51.980;5.850;2023-02-28T03:19:41;4.33;;;2.37;;
51602;SDS011;37954;51.980;5.850;2023-02-28T03:24:02;3.90;;;2.23;;
51602;SDS011;37954;51.980;5.850;2023-02-28T03:28:18;3.20;;;2.20;;
51602;SDS011;37954;51.980;5.850;2023-02-28T03:32:38;2.67;;;1.93;;
51602;SDS011;37954;51.980;5.850;2023-02-28T03:36:57;2.33;;;1.67;;
51602;SDS011;37954;51.980;5.850;2023-02-28T03:41:27;3.47;;;2.20;;
51602;SDS011;37954;51.980;5.850;2023-02-28T03:45:44;2.30;;;2.10;;
51602;SDS011;37954;51.980;5.850;2023-02-28T03:50:08;2.17;;;1.83;;
51602;SDS011;37954;51.980;5.850;2023-02-28T03:54:23;2.80;;;1.80;;
51602;SDS011;37954;51.980;5.850;2023-02-28T03:58:43;2.17;;;1.90;;
51602;SDS011;37954;51.980;5.850;2023-02-28T04:03:16;2.03;;;1.50;;
51602;SDS011;37954;51.980;5.850;2023-02-28T04:07:29;2.03;;;1.30;;
51602;SDS011;37954;51.980;5.850;2023-02-28T04:11:42;2.20;;;1.17;;
51602;SDS011;37954;51.980;5.850;2023-02-28T04:16:07;0.80;;;0.80;;
51602;SDS011;37954;51.980;5.850;2023-02-28T04:20:31;1.13;;;0.97;;
51602;SDS011;37954;51.980;5.850;2023-02-28T04:24:43;1.50;;;1.00;;
51602;SDS011;37954;51.980;5.850;2023-02-28T04:28:55;2.37;;;1.33;;
51602;SDS011;37954;51.980;5.850;2023-02-28T04:33:07;1.27;;;0.83;;
51602;SDS011;37954;51.980;5.850;2023-02-28T04:37:19;1.10;;;1.00;;
51602;SDS011;37954;51.980;5.850;2023-02-28T04:41:31;1.83;;;1.33;;
51602;SDS011;37954;51.980;5.850;2023-02-28T04:45:43;2.87;;;1.60;;
51602;SDS011;37954;51.980;5.850;2023-02-28T04:49:55;1.70;;;1.40;;
51602;SDS011;37954;51.980;5.850;2023-02-28T04:54:06;2.50;;;1.37;;
51602;SDS011;37954;51.980;5.850;2023-02-28T04:58:19;2.00;;;1.40;;
51602;SDS011;37954;51.980;5.850;2023-02-28T05:02:30;1.87;;;1.70;;
51602;SDS011;37954;51.980;5.850;2023-02-28T05:06:42;1.63;;;1.13;;
51602;SDS011;37954;51.980;5.850;2023-02-28T05:10:54;3.03;;;1.40;;
51602;SDS011;37954;51.980;5.850;2023-02-28T05:15:06;2.30;;;1.83;;
51602;SDS011;37954;51.980;5.850;2023-02-28T05:19:19;1.83;;;1.60;;
51602;SDS011;37954;51.980;5.850;2023-02-28T05:23:32;2.03;;;1.70;;
51602;SDS011;37954;51.980;5.850;2023-02-28T05:27:44;2.93;;;2.07;;
51602;SDS011;37954;51.980;5.850;2023-02-28T05:31:56;2.10;;;1.60;;
51602;SDS011;37954;51.980;5.850;2023-02-28T05:36:07;4.90;;;3.00;;
51602;SDS011;37954;51.980;5.850;2023-02-28T05:40:19;3.10;;;2.50;;
51602;SDS011;37954;51.980;5.850;2023-02-28T05:44:31;2.47;;;1.83;;
51602;SDS011;37954;51.980;5.850;2023-02-28T05:48:45;3.57;;;1.60;;
51602;SDS011;37954;51.980;5.850;2023-02-28T05:52:58;4.03;;;1.50;;
51602;SDS011;37954;51.980;5.850;2023-02-28T05:57:09;5.00;;;1.60;;
51602;SDS011;37954;51.980;5.850;2023-02-28T06:01:35;3.23;;;1.70;;
51602;SDS011;37954;51.980;5.850;2023-02-28T06:05:49;1.67;;;1.57;;
51602;SDS011;37954;51.980;5.850;2023-02-28T06:10:01;2.27;;;1.40;;
51602;SDS011;37954;51.980;5.850;2023-02-28T06:14:17;1.70;;;1.33;;
51602;SDS011;37954;51.980;5.850;2023-02-28T06:18:30;2.47;;;1.60;;
51602;SDS011;37954;51.980;5.850;2023-02-28T06:22:41;2.03;;;1.77;;
51602;SDS011;37954;51.980;5.850;2023-02-28T06:26:54;1.50;;;1.30;;
51602;SDS011;37954;51.980;5.850;2023-02-28T06:31:06;1.97;;;1.40;;
51602;SDS011;37954;51.980;5.850;2023-02-28T06:35:19;2.50;;;1.80;;
51602;SDS011;37954;51.980;5.850;2023-02-28T06:39:31;3.33;;;1.80;;
51602;SDS011;37954;51.980;5.850;2023-02-28T06:43:43;1.77;;;1.40;;
51602;SDS011;37954;51.980;5.850;2023-02-28T06:47:55;1.93;;;1.40;;
51602;SDS011;37954;51.980;5.850;2023-02-28T06:52:07;1.37;;;1.23;;
51602;SDS011;37954;51.980;5.850;2023-02-28T06:56:19;1.30;;;1.20;;
51602;SDS011;37954;51.980;5.850;2023-02-28T07:00:31;1.60;;;1.17;;
51602;SDS011;37954;51.980;5.850;2023-02-28T07:04:43;1.40;;;1.30;;
51602;SDS011;37954;51.980;5.850;2023-02-28T07:08:56;3.73;;;2.17;;
51602;SDS011;37954;51.980;5.850;2023-02-28T07:13:08;3.13;;;2.00;;
51602;SDS011;37954;51.980;5.850;2023-02-28T07:17:20;6.97;;;2.47;;
51602;SDS011;37954;51.980;5.850;2023-02-28T07:21:31;2.43;;;1.80;;
51602;SDS011;37954;51.980;5.850;2023-02-28T07:25:43;7.03;;;2.80;;
51602;SDS011;37954;51.980;5.850;2023-02-28T07:29:55;2.93;;;1.80;;
51602;SDS011;37954;51.980;5.850;2023-02-28T07:34:06;8.63;;;3.00;;
51602;SDS011;37954;51.980;5.850;2023-02-28T07:38:18;6.13;;;2.10;;
51602;SDS011;37954;51.980;5.850;2023-02-28T07:42:30;2.70;;;1.77;;
51602;SDS011;37954;51.980;5.850;2023-02-28T07:46:41;3.10;;;1.50;;
51602;SDS011;37954;51.980;5.850;2023-02-28T07:50:54;2.47;;;1.53;;
51602;SDS011;37954;51.980;5.850;2023-02-28T07:55:07;2.00;;;1.50;;
51602;SDS011;37954;51.980;5.850;2023-02-28T07:59:20;2.70;;;1.70;;
51602;SDS011;37954;51.980;5.850;2023-02-28T08:03:32;2.17;;;1.43;;
51602;SDS011;37954;51.980;5.850;2023-02-28T08:07:44;2.73;;;1.60;;
51602;SDS011;37954;51.980;5.850;2023-02-28T08:11:55;2.03;;;1.60;;
51602;SDS011;37954;51.980;5.850;2023-02-28T08:16:07;3.97;;;2.00;;
51602;SDS011;37954;51.980;5.850;2023-02-28T08:20:19;2.30;;;1.50;;
51602;SDS011;37954;51.980;5.850;2023-02-28T08:24:31;1.92;;;1.40;;
51602;SDS011;37954;51.980;5.850;2023-02-28T08:28:42;2.08;;;1.50;;
51602;SDS011;37954;51.980;5.850;2023-02-28T08:32:55;2.85;;;1.52;;
51602;SDS011;37954;51.980;5.850;2023-02-28T08:37:07;2.45;;;1.52;;
51602;SDS011;37954;51.980;5.850;2023-02-28T08:41:19;1.42;;;1.25;;
51602;SDS011;37954;51.980;5.850;2023-02-28T08:45:30;1.90;;;1.38;;
51602;SDS011;37954;51.980;5.850;2023-02-28T08:49:42;2.42;;;1.55;;
51602;SDS011;37954;51.980;5.850;2023-02-28T08:53:58;2.10;;;1.25;;
51602;SDS011;37954;51.980;5.850;2023-02-28T08:58:11;2.75;;;1.60;;
51602;SDS011;37954;51.980;5.850;2023-02-28T09:02:22;1.60;;;1.40;;
51602;SDS011;37954;51.980;5.850;2023-02-28T09:06:34;1.33;;;1.20;;
51602;SDS011;37954;51.980;5.850;2023-02-28T09:10:46;1.55;;;1.30;;
51602;SDS011;37954;51.980;5.850;2023-02-28T09:14:58;1.20;;;1.10;;
51602;SDS011;37954;51.980;5.850;2023-02-28T09:19:10;1.48;;;1.38;;
51602;SDS011;37954;51.980;5.850;2023-02-28T09:23:23;1.10;;;1.00;;
51602;SDS011;37954;51.980;5.850;2023-02-28T09:27:35;1.20;;;1.10;;
51602;SDS011;37954;51.980;5.850;2023-02-28T09:31:48;1.55;;;1.35;;
51602;SDS011;37954;51.980;5.850;2023-02-28T09:36:01;1.45;;;1.25;;
51602;SDS011;37954;51.980;5.850;2023-02-28T09:40:14;2.85;;;1.48;;
51602;SDS011;37954;51.980;5.850;2023-02-28T09:44:31;1.40;;;1.27;;
51602;SDS011;37954;51.980;5.850;2023-02-28T09:48:56;1.27;;;1.08;;
51602;SDS011;37954;51.980;5.850;2023-02-28T09:53:15;2.38;;;1.73;;
51602;SDS011;37954;51.980;5.850;2023-02-28T09:57:36;1.23;;;1.13;;
51602;SDS011;37954;51.980;5.850;2023-02-28T10:07:06;1.60;;;1.40;;
51602;SDS011;37954;51.980;5.850;2023-02-28T10:11:43;1.48;;;1.35;;
51602;SDS011;37954;51.980;5.850;2023-02-28T10:16:08;1.80;;;1.48;;
51602;SDS011;37954;51.980;5.850;2023-02-28T10:20:33;1.35;;;1.25;;
51602;SDS011;37954;51.980;5.850;2023-02-28T10:24:52;1.35;;;1.20;;
51602;SDS011;37954;51.980;5.850;2023-02-28T10:29:08;1.45;;;1.35;;
51602;SDS011;37954;51.980;5.850;2023-02-28T10:33:25;1.23;;;1.13;;
51602;SDS011;37954;51.980;5.850;2023-02-28T10:37:41;1.45;;;1.10;;
51602;SDS011;37954;51.980;5.850;2023-02-28T10:41:54;1.70;;;1.30;;
51602;SDS011;37954;51.980;5.850;2023-02-28T10:50:31;1.25;;;1.05;;
51602;SDS011;37954;51.980;5.850;2023-02-28T10:54:50;1.85;;;1.30;;
51602;SDS011;37954;51.980;5.850;2023-02-28T10:59:29;1.50;;;1.20;;
51602;SDS011;37954;51.980;5.850;2023-02-28T11:03:41;1.50;;;1.30;;
51602;SDS011;37954;51.980;5.850;2023-02-28T11:07:54;1.50;;;1.40;;
51602;SDS011;37954;51.980;5.850;2023-02-28T11:12:08;1.40;;;1.05;;
51602;SDS011;37954;51.980;5.850;2023-02-28T11:17:03;2.70;;;1.42;;
51602;SDS011;37954;51.980;5.850;2023-02-28T11:21:27;2.03;;;1.50;;
51602;SDS011;37954;51.980;5.850;2023-02-28T11:25:49;1.55;;;1.35;;
51602;SDS011;37954;51.980;5.850;2023-02-28T11:30:05;1.38;;;1.20;;
51602;SDS011;37954;51.980;5.850;2023-02-28T11:35:18;3.00;;;1.65;;
51602;SDS011;37954;51.980;5.850;2023-02-28T11:39:56;1.40;;;1.30;;
51602;SDS011;37954;51.980;5.850;2023-02-28T11:44:17;1.60;;;1.50;;
51602;SDS011;37954;51.980;5.850;2023-02-28T11:49:06;3.30;;;1.90;;
51602;SDS011;37954;51.980;5.850;2023-02-28T12:21:18;1.90;;;1.40;;
51602;SDS011;37954;51.980;5.850;2023-02-28T12:30:32;1.70;;;1.48;;
51602;SDS011;37954;51.980;5.850;2023-02-28T12:35:01;1.50;;;1.40;;
51602;SDS011;37954;51.980;5.850;2023-02-28T12:39:22;2.25;;;1.50;;
51602;SDS011;37954;51.980;5.850;2023-02-28T12:43:37;1.67;;;1.52;;
51602;SDS011;37954;51.980;5.850;2023-02-28T12:48:04;7.10;;;2.97;;
51602;SDS011;37954;51.980;5.850;2023-02-28T12:57:11;1.92;;;1.60;;
51602;SDS011;37954;51.980;5.850;2023-02-28T13:10:37;1.20;;;1.10;;
51602;SDS011;37954;51.980;5.850;2023-02-28T13:14:51;1.95;;;1.30;;
51602;SDS011;37954;51.980;5.850;2023-02-28T13:19:22;1.30;;;1.20;;
51602;SDS011;37954;51.980;5.850;2023-02-28T13:23:56;1.55;;;1.30;;
51602;SDS011;37954;51.980;5.850;2023-02-28T13:28:56;1.60;;;1.25;;
51602;SDS011;37954;51.980;5.850;2023-02-28T13:37:43;1.98;;;1.60;;
51602;SDS011;37954;51.980;5.850;2023-02-28T13:41:55;1.45;;;1.33;;
51602;SDS011;37954;51.980;5.850;2023-02-28T13:46:11;1.80;;;1.40;;
51602;SDS011;37954;51.980;5.850;2023-02-28T13:50:28;1.67;;;1.50;;
51602;SDS011;37954;51.980;5.850;2023-02-28T13:59:42;1.75;;;1.50;;
51602;SDS011;37954;51.980;5.850;2023-02-28T14:09:03;1.60;;;1.50;;
51602;SDS011;37954;51.980;5.850;2023-02-28T14:13:45;2.00;;;1.30;;
51602;SDS011;37954;51.980;5.850;2023-02-28T14:17:59;2.30;;;1.60;;
51602;SDS011;37954;51.980;5.850;2023-02-28T14:35:52;2.50;;;1.47;;
51602;SDS011;37954;51.980;5.850;2023-02-28T14:40:27;2.27;;;1.63;;
51602;SDS011;37954;51.980;5.850;2023-02-28T14:44:41;2.00;;;1.60;;
51602;SDS011;37954;51.980;5.850;2023-02-28T14:48:52;2.47;;;1.50;;
51602;SDS011;37954;51.980;5.850;2023-02-28T14:53:04;1.50;;;1.37;;
51602;SDS011;37954;51.980;5.850;2023-02-28T14:57:24;1.40;;;1.30;;
51602;SDS011;37954;51.980;5.850;2023-02-28T15:01:40;1.90;;;1.43;;
51602;SDS011;37954;51.980;5.850;2023-02-28T15:05:53;1.30;;;1.20;;
51602;SDS011;37954;51.980;5.850;2023-02-28T15:10:12;2.27;;;1.57;;
51602;SDS011;37954;51.980;5.850;2023-02-28T15:14:28;1.57;;;1.40;;
51602;SDS011;37954;51.980;5.850;2023-02-28T15:19:00;1.67;;;1.57;;
51602;SDS011;37954;51.980;5.850;2023-02-28T15:23:15;2.23;;;1.50;;
51602;SDS011;37954;51.980;5.850;2023-02-28T15:27:29;1.57;;;1.47;;
51602;SDS011;37954;51.980;5.850;2023-02-28T15:31:44;1.50;;;1.30;;
51602;SDS011;37954;51.980;5.850;2023-02-28T15:36:17;1.50;;;1.40;;
51602;SDS011;37954;51.980;5.850;2023-02-28T15:40:36;1.67;;;1.40;;
51602;SDS011;37954;51.980;5.850;2023-02-28T15:44:49;2.27;;;1.43;;
51602;SDS011;37954;51.980;5.850;2023-02-28T15:49:00;1.50;;;1.23;;
51602;SDS011;37954;51.980;5.850;2023-02-28T15:53:13;1.57;;;1.40;;
51602;SDS011;37954;51.980;5.850;2023-02-28T15:57:28;2.67;;;1.50;;
51602;SDS011;37954;51.980;5.850;2023-02-28T16:01:41;1.57;;;1.30;;
51602;SDS011;37954;51.980;5.850;2023-02-28T16:06:39;2.73;;;1.57;;
51602;SDS011;37954;51.980;5.850;2023-02-28T16:10:36;1.90;;;1.50;;
51602;SDS011;37954;51.980;5.850;2023-02-28T16:14:48;1.97;;;1.67;;
51602;SDS011;37954;51.980;5.850;2023-02-28T16:19:03;1.40;;;1.30;;
51602;SDS011;37954;51.980;5.850;2023-02-28T16:23:15;2.17;;;1.50;;
51602;SDS011;37954;51.980;5.850;2023-02-28T16:27:30;1.40;;;1.30;;
51602;SDS011;37954;51.980;5.850;2023-02-28T16:31:43;1.40;;;1.30;;
51602;SDS011;37954;51.980;5.850;2023-02-28T16:35:55;1.40;;;1.30;;
51602;SDS011;37954;51.980;5.850;2023-02-28T16:40:08;1.50;;;1.40;;
51602;SDS011;37954;51.980;5.850;2023-02-28T16:44:29;1.70;;;1.30;;
51602;SDS011;37954;51.980;5.850;2023-02-28T16:48:44;2.37;;;1.57;;
51602;SDS011;37954;51.980;5.850;2023-02-28T16:52:56;2.20;;;1.80;;
51602;SDS011;37954;51.980;5.850;2023-02-28T16:57:15;2.60;;;2.00;;
51602;SDS011;37954;51.980;5.850;2023-02-28T17:01:31;4.53;;;3.67;;
51602;SDS011;37954;51.980;5.850;2023-02-28T17:05:44;3.97;;;2.73;;
51602;SDS011;37954;51.980;5.850;2023-02-28T17:09:55;4.13;;;2.40;;
51602;SDS011;37954;51.980;5.850;2023-02-28T17:14:07;1.90;;;1.70;;
51602;SDS011;37954;51.980;5.850;2023-02-28T17:18:19;2.40;;;2.10;;
51602;SDS011;37954;51.980;5.850;2023-02-28T17:22:32;3.70;;;2.63;;
51602;SDS011;37954;51.980;5.850;2023-02-28T17:26:43;5.20;;;2.20;;
51602;SDS011;37954;51.980;5.850;2023-02-28T17:30:55;2.20;;;1.80;;
51602;SDS011;37954;51.980;5.850;2023-02-28T17:35:07;2.50;;;1.63;;
51602;SDS011;37954;51.980;5.850;2023-02-28T17:39:19;1.50;;;1.30;;
51602;SDS011;37954;51.980;5.850;2023-02-28T17:43:35;2.10;;;1.50;;
51602;SDS011;37954;51.980;5.850;2023-02-28T17:47:47;1.60;;;1.50;;
51602;SDS011;37954;51.980;5.850;2023-02-28T17:52:00;3.93;;;1.97;;
51602;SDS011;37954;51.980;5.850;2023-02-28T17:56:12;3.87;;;2.30;;
51602;SDS011;37954;51.980;5.850;2023-02-28T18:00:29;1.43;;;1.30;;
51602;SDS011;37954;51.980;5.850;2023-02-28T18:04:40;1.43;;;1.33;;
51602;SDS011;37954;51.980;5.850;2023-02-28T18:08:52;2.43;;;1.53;;
51602;SDS011;37954;51.980;5.850;2023-02-28T18:13:04;2.23;;;1.83;;
51602;SDS011;37954;51.980;5.850;2023-02-28T18:17:16;6.87;;;2.80;;
51602;SDS011;37954;51.980;5.850;2023-02-28T18:21:27;4.53;;;2.40;;
51602;SDS011;37954;51.980;5.850;2023-02-28T18:25:39;3.77;;;1.87;;
51602;SDS011;37954;51.980;5.850;2023-02-28T18:29:51;2.40;;;1.90;;
51602;SDS011;37954;51.980;5.850;2023-02-28T18:34:03;1.90;;;1.70;;
51602;SDS011;37954;51.980;5.850;2023-02-28T18:38:16;5.33;;;2.60;;
51602;SDS011;37954;51.980;5.850;2023-02-28T18:42:32;2.63;;;2.30;;
51602;SDS011;37954;51.980;5.850;2023-02-28T18:46:44;8.03;;;4.33;;
51602;SDS011;37954;51.980;5.850;2023-02-28T18:50:55;3.57;;;3.00;;
51602;SDS011;37954;51.980;5.850;2023-02-28T18:55:07;5.77;;;2.83;;
51602;SDS011;37954;51.980;5.850;2023-02-28T18:59:21;4.80;;;2.93;;
51602;SDS011;37954;51.980;5.850;2023-02-28T19:03:33;5.17;;;3.07;;
51602;SDS011;37954;51.980;5.850;2023-02-28T19:07:44;8.40;;;3.00;;
51602;SDS011;37954;51.980;5.850;2023-02-28T19:11:56;6.53;;;4.30;;
51602;SDS011;37954;51.980;5.850;2023-02-28T19:16:08;12.27;;;5.37;;
51602;SDS011;37954;51.980;5.850;2023-02-28T19:20:21;5.37;;;3.00;;
51602;SDS011;37954;51.980;5.850;2023-02-28T19:24:33;4.07;;;2.70;;
51602;SDS011;37954;51.980;5.850;2023-02-28T19:28:44;4.07;;;2.40;;
51602;SDS011;37954;51.980;5.850;2023-02-28T19:32:56;2.40;;;2.00;;
51602;SDS011;37954;51.980;5.850;2023-02-28T19:37:08;8.00;;;2.40;;
51602;SDS011;37954;51.980;5.850;2023-02-28T19:41:20;2.23;;;2.03;;
51602;SDS011;37954;51.980;5.850;2023-02-28T19:45:33;3.80;;;1.90;;
51602;SDS011;37954;51.980;5.850;2023-02-28T19:49:46;4.70;;;2.30;;
51602;SDS011;37954;51.980;5.850;2023-02-28T19:53:57;2.53;;;2.00;;
51602;SDS011;37954;51.980;5.850;2023-02-28T19:58:09;2.70;;;1.87;;
51602;SDS011;37954;51.980;5.850;2023-02-28T20:02:21;2.50;;;1.97;;
51602;SDS011;37954;51.980;5.850;2023-02-28T20:06:33;2.93;;;2.10;;
51602;SDS011;37954;51.980;5.850;2023-02-28T20:10:45;2.67;;;2.00;;
51602;SDS011;37954;51.980;5.850;2023-02-28T20:14:56;2.70;;;2.00;;
51602;SDS011;37954;51.980;5.850;2023-02-28T20:19:10;3.47;;;2.30;;
51602;SDS011;37954;51.980;5.850;2023-02-28T20:23:23;3.00;;;2.23;;
51602;SDS011;37954;51.980;5.850;2023-02-28T20:27:35;2.77;;;2.17;;
51602;SDS011;37954;51.980;5.850;2023-02-28T20:31:47;2.80;;;2.40;;
51602;SDS011;37954;51.980;5.850;2023-02-28T20:35:59;3.70;;;2.70;;
51602;SDS011;37954;51.980;5.850;2023-02-28T20:40:12;6.00;;;2.57;;
51602;SDS011;37954;51.980;5.850;2023-02-28T20:44:24;3.20;;;2.60;;
51602;SDS011;37954;51.980;5.850;2023-02-28T20:48:36;4.77;;;2.97;;
51602;SDS011;37954;51.980;5.850;2023-02-28T20:52:48;9.00;;;4.13;;
51602;SDS011;37954;51.980;5.850;2023-02-28T20:57:01;11.47;;;5.07;;
51602;SDS011;37954;51.980;5.850;2023-02-28T21:01:23;8.17;;;4.13;;
51602;SDS011;37954;51.980;5.850;2023-02-28T21:05:36;6.60;;;3.50;;
51602;SDS011;37954;51.980;5.850;2023-02-28T21:09:48;8.23;;;3.33;;
51602;SDS011;37954;51.980;5.850;2023-02-28T21:14:01;6.57;;;3.33;;
51602;SDS011;37954;51.980;5.850;2023-02-28T21:18:15;3.43;;;2.60;;
51602;SDS011;37954;51.980;5.850;2023-02-28T21:22:26;5.23;;;2.53;;
51602;SDS011;37954;51.980;5.850;2023-02-28T21:26:38;4.43;;;2.40;;
51602;SDS011;37954;51.980;5.850;2023-02-28T21:30:51;3.63;;;2.50;;
51602;SDS011;37954;51.980;5.850;2023-02-28T21:35:03;2.83;;;2.40;;
51602;SDS011;37954;51.980;5.850;2023-02-28T21:39:20;3.57;;;2.97;;
51602;SDS011;37954;51.980;5.850;2023-02-28T21:43:35;3.70;;;2.73;;
51602;SDS011;37954;51.980;5.850;2023-02-28T21:47:48;4.70;;;2.97;;
51602;SDS011;37954;51.980;5.850;2023-02-28T21:51:59;5.10;;;2.60;;
51602;SDS011;37954;51.980;5.850;2023-02-28T21:56:12;2.73;;;2.40;;
51602;SDS011;37954;51.980;5.850;2023-02-28T22:00:26;2.53;;;2.20;;
51602;SDS011;37954;51.980;5.850;2023-02-28T22:04:37;3.27;;;2.63;;
51602;SDS011;37954;51.980;5.850;2023-02-28T22:08:53;3.60;;;2.40;;
51602;SDS011;37954;51.980;5.850;2023-02-28T22:13:06;3.70;;;2.20;;
51602;SDS011;37954;51.980;5.850;2023-02-28T22:17:18;3.50;;;2.40;;
51602;SDS011;37954;51.980;5.850;2023-02-28T22:21:30;4.77;;;2.37;;
51602;SDS011;37954;51.980;5.850;2023-02-28T22:25:41;5.33;;;2.93;;
51602;SDS011;37954;51.980;5.850;2023-02-28T22:29:53;4.00;;;2.30;;
51602;SDS011;37954;51.980;5.850;2023-02-28T22:34:07;2.37;;;2.10;;
51602;SDS011;37954;51.980;5.850;2023-02-28T22:38:21;3.03;;;2.23;;
51602;SDS011;37954;51.980;5.850;2023-02-28T22:42:33;3.87;;;2.23;;
51602;SDS011;37954;51.980;5.850;2023-02-28T22:46:45;2.47;;;2.27;;
51602;SDS011;37954;51.980;5.850;2023-02-28T22:51:00;2.53;;;2.33;;
51602;SDS011;37954;51.980;5.850;2023-02-28T22:55:13;7.00;;;2.60;;
51602;SDS011;37954;51.980;5.850;2023-02-28T22:59:25;8.57;;;3.40;;
51602;SDS011;37954;51.980;5.850;2023-02-28T23:03:36;2.87;;;2.47;;
51602;SDS011;37954;51.980;5.850;2023-02-28T23:07:48;4.00;;;3.10;;
51602;SDS011;37954;51.980;5.850;2023-02-28T23:12:01;4.37;;;2.70;;
51602;SDS011;37954;51.980;5.850;2023-02-28T23:16:12;3.43;;;2.57;;
51602;SDS011;37954;51.980;5.850;2023-02-28T23:20:24;4.90;;;2.70;;
51602;SDS011;37954;51.980;5.850;2023-02-28T23:24:36;3.53;;;2.50;;
51602;SDS011;37954;51.980;5.850;2023-02-28T23:28:48;5.07;;;2.97;;
51602;SDS011;37954;51.980;5.850;2023-02-28T23:33:00;3.70;;;2.80;;
51602;SDS011;37954;51.980;5.850;2023-02-28T23:37:11;3.13;;;2.60;;
51602;SDS011;37954;51.980;5.850;2023-02-28T23:41:23;3.47;;;2.30;;
51602;SDS011;37954;51.980;5.850;2023-02-28T23:45:35;3.17;;;2.33;;
51602;SDS011;37954;51.980;5.850;2023-02-28T23:49:47;5.33;;;2.73;;
51602;SDS011;37954;51.980;5.850;2023-02-28T23:53:59;2.80;;;2.47;;
51602;SDS011;37954;51.980;5.850;2023-02-28T23:58:13;4.47;;;2.30;;
